Sakizaya Diamond — 3FUZ8 — position and weather

sailwx.info

Track history (hours):
 
Tides and Currents Weather Stations Pressure Air Temp Water Temp Dewpoint Dewpoint Depression Visibility Wind Speed Wind Dir Waves Ship Positions

Sakizaya Diamond

Last reported at 2018-Jul-28 19:38 UTC. Time now 2018-Aug-20 16:46 UTC.
Position N 36°44' W 029°46'.
Warning: this ship's position is 22 days out of date.

Length 229 m; draft 8 m.

Type: Cargo ship. MMSI: 357573000.

Date/timePositionNaut miles runAvg speedWind from/ knotsBaromVisibWave heightAir tempDewpointWater temp
2018-Jul-28 19:38N 36°44' W 029°46'514.5
2018-Jul-28 19:19N 36°47' W 029°41'1514.2
2018-Jul-28 18:17N 36°56' W 029°26'714.5
2018-Jul-28 17:50N 36°59' W 029°20'814.3
2018-Jul-28 17:18N 37°04' W 029°12'413.7
2018-Jul-28 17:00N 37°07' W 029°08'714.1
2018-Jul-28 16:30N 37°10' W 029°01'714.0
2018-Jul-28 16:00N 37°14' W 028°54'714.4
2018-Jul-28 15:30N 37°18' W 028°46'714.7
2018-Jul-28 15:00N 37°22' W 028°39'714.4
2018-Jul-28 14:30N 37°27' W 028°32'714.3
2018-Jul-28 14:00N 37°31' W 028°24'714.1
2018-Jul-28 13:31N 37°35' W 028°17'714.1
2018-Jul-28 13:00N 37°39' W 028°09'714.5
2018-Jul-28 12:30N 37°43' W 028°02'714.7
2018-Jul-28 12:00N 37°47' W 027°54'714.7
2018-Jul-28 11:30N 37°51' W 027°47'714.2
2018-Jul-28 11:00N 37°56' W 027°39'714.2
2018-Jul-28 10:30N 37°60' W 027°32'713.9
2018-Jul-28 10:00N 38°04' W 027°25'714.2
2018-Jul-28 09:30N 38°08' W 027°18'714.3
2018-Jul-28 09:01N 38°13' W 027°11'714.4
2018-Jul-28 08:30N 38°17' W 027°03'714.0
2018-Jul-28 08:00N 38°21' W 026°56'714.5
2018-Jul-28 07:30N 38°26' W 026°49'815.0
2018-Jul-28 07:00N 38°30' W 026°41'714.6
2018-Jul-28 06:30N 38°34' W 026°33'714.6
2018-Jul-28 06:00N 38°38' W 026°25'714.4
2018-Jul-28 05:30N 38°42' W 026°18'714.1
2018-Jul-28 05:00N 38°46' W 026°10'714.5
2018-Jul-28 04:30N 38°50' W 026°02'714.5
2018-Jul-28 04:00N 38°54' W 025°55'1314.0
2018-Jul-28 03:05N 39°01' W 025°41'114.5
2018-Jul-28 03:00N 39°02' W 025°40'914.6
2018-Jul-28 02:22N 39°08' W 025°31'3913.7
2018-Jul-27 23:32N 39°30' W 024°49'513.8
2018-Jul-27 23:08N 39°33' W 024°44'913.6
2018-Jul-27 22:31N 39°38' W 024°35'613.4
2018-Jul-27 22:03N 39°42' W 024°28'  
2018-Jul-24 22:35N 48°54' W 006°13'114.3
2018-Jul-24 22:30N 48°55' W 006°12'1114.6
2018-Jul-24 21:44N 49°01' W 005°58'1615.2
2018-Jul-24 20:42N 49°08' W 005°37'315.6
2018-Jul-24 20:31N 49°10' W 005°33'1115.4
2018-Jul-24 19:47N 49°15' W 005°18'515.3
2018-Jul-24 19:29N 49°17' W 005°11'5514.1
2018-Jul-24 15:35N 49°49' W 004°02'313.1
2018-Jul-24 15:21N 49°50' W 003°57'1113.0
2018-Jul-24 14:30N 49°53' W 003°41'713.4
2018-Jul-24 14:00N 49°56' W 003°32'713.8
2018-Jul-24 13:31N 49°58' W 003°22'714.1
2018-Jul-24 13:00N 50°02' W 003°12'714.8
2018-Jul-24 12:30N 50°07' W 003°04'815.1
2018-Jul-24 12:00N 50°12' W 002°55'815.1
2018-Jul-24 11:31N 50°17' W 002°47'815.4
2018-Jul-24 11:01N 50°23' W 002°38'815.2
2018-Jul-24 10:31N 50°28' W 002°30'815.2
2018-Jul-24 10:01N 50°34' W 002°22'2 4.3
2018-Jul-24 09:30N 50°34' W 002°26'0 0.4
2018-Jul-24 08:58N 50°34' W 002°26'0 0.0
2018-Jul-24 08:28N 50°34' W 002°26'0 0.0
2018-Jul-24 07:52N 50°34' W 002°26'0 0.0
2018-Jul-24 07:16N 50°34' W 002°26'0 0.0
2018-Jul-24 06:58N 50°34' W 002°26'0 0.0
2018-Jul-24 06:28N 50°34' W 002°26'0 0.0
2018-Jul-24 05:58N 50°34' W 002°26'0 0.0
2018-Jul-24 05:28N 50°34' W 002°26'0 0.0
2018-Jul-24 04:58N 50°34' W 002°26'0 0.0
2018-Jul-24 04:23N 50°34' W 002°26'0 0.0
2018-Jul-24 03:56N 50°34' W 002°26'0 0.0
2018-Jul-24 03:28N 50°34' W 002°26'0 0.0
2018-Jul-24 02:52N 50°34' W 002°26'0 0.0
2018-Jul-24 02:25N 50°34' W 002°26'0 0.0
2018-Jul-24 01:59N 50°34' W 002°26'0 0.0
2018-Jul-24 01:26N 50°34' W 002°26'0 0.0
2018-Jul-24 00:53N 50°34' W 002°26'0 0.0
2018-Jul-24 00:17N 50°34' W 002°26'0 0.0
2018-Jul-23 23:59N 50°34' W 002°26'0 0.0
2018-Jul-23 23:23N 50°34' W 002°26'0 0.0
2018-Jul-23 22:59N 50°34' W 002°26'0 0.0
2018-Jul-23 22:23N 50°34' W 002°26'0 0.0
2018-Jul-23 21:53N 50°34' W 002°26'0 0.0
2018-Jul-23 21:23N 50°34' W 002°26'0 0.0
2018-Jul-23 20:59N 50°34' W 002°26'0 0.0
2018-Jul-23 19:56N 50°34' W 002°26'0 0.0
2018-Jul-23 19:23N 50°34' W 002°26'0 0.0
2018-Jul-23 18:49N 50°34' W 002°26'0 0.0
2018-Jul-23 18:29N 50°34' W 002°26'0 0.0
2018-Jul-23 17:56N 50°34' W 002°26'0 0.0
2018-Jul-23 17:28N 50°34' W 002°26'0 0.0
2018-Jul-23 16:58N 50°34' W 002°26'0 0.0
2018-Jul-23 16:28N 50°34' W 002°26'0 0.0
2018-Jul-23 15:59N 50°34' W 002°26'0 0.0
2018-Jul-23 15:29N 50°34' W 002°26'0 0.0
2018-Jul-23 14:47N 50°34' W 002°26'0 0.0
2018-Jul-23 14:22N 50°34' W 002°26'0 0.0
2018-Jul-23 13:53N 50°34' W 002°26'0 0.0
2018-Jul-23 12:52N 50°34' W 002°26'0 0.0
2018-Jul-23 12:28N 50°34' W 002°26'0 0.0
2018-Jul-23 11:47N 50°34' W 002°26'0 0.0
2018-Jul-23 11:04N 50°34' W 002°26'0 0.0
2018-Jul-23 10:52N 50°34' W 002°26'0 0.0
2018-Jul-23 10:23N 50°34' W 002°26'0 0.0
2018-Jul-23 09:46N 50°34' W 002°26'0 0.0
2018-Jul-23 09:17N 50°34' W 002°26'0 0.0
2018-Jul-23 08:53N 50°34' W 002°26'0 0.0
2018-Jul-23 08:29N 50°34' W 002°26'0 0.0
2018-Jul-23 07:53N 50°34' W 002°26'0 0.0
2018-Jul-23 07:22N 50°34' W 002°26'0 0.0
2018-Jul-23 06:52N 50°34' W 002°26'0 0.0
2018-Jul-23 06:17N 50°34' W 002°26'0 0.0
2018-Jul-23 05:58N 50°34' W 002°26'0 0.0
2018-Jul-23 05:22N 50°34' W 002°26'0 0.0
2018-Jul-23 04:58N 50°34' W 002°26'0 0.0
2018-Jul-23 04:19N 50°34' W 002°26'0 0.0
2018-Jul-23 03:58N 50°34' W 002°26'0 0.0
2018-Jul-23 03:25N 50°34' W 002°26'0 0.0
2018-Jul-23 02:58N 50°34' W 002°26'0 0.0
2018-Jul-23 02:22N 50°34' W 002°26'0 0.0
2018-Jul-23 01:58N 50°34' W 002°26'0 0.0
2018-Jul-23 01:29N 50°34' W 002°26'0 0.0
2018-Jul-23 00:56N 50°34' W 002°26'0 0.0
2018-Jul-23 00:29N 50°34' W 002°26'0 0.0
2018-Jul-22 23:55N 50°34' W 002°26'0 0.0
2018-Jul-22 23:29N 50°34' W 002°26'0 0.0
2018-Jul-22 22:58N 50°34' W 002°26'0 0.0
2018-Jul-22 22:29N 50°34' W 002°26'0 0.0
2018-Jul-22 21:58N 50°34' W 002°26'0 0.0
2018-Jul-22 21:28N 50°34' W 002°26'0 0.0
2018-Jul-22 20:58N 50°34' W 002°26'0 0.0
2018-Jul-22 20:28N 50°34' W 002°26'0 0.0
2018-Jul-22 19:46N 50°34' W 002°26'0 0.0
2018-Jul-22 19:14N 50°34' W 002°26'0 0.0
2018-Jul-22 18:58N 50°34' W 002°26'0 0.0
2018-Jul-22 18:22N 50°34' W 002°26'0 0.0
2018-Jul-22 17:58N 50°34' W 002°26'0 0.0
2018-Jul-22 17:28N 50°34' W 002°26'0 0.0
2018-Jul-22 16:52N 50°34' W 002°26'0 0.0
2018-Jul-22 16:28N 50°34' W 002°26'0 0.0
2018-Jul-22 15:58N 50°34' W 002°26'0 0.0
2018-Jul-22 14:55N 50°34' W 002°26'0 0.0
2018-Jul-22 14:28N 50°34' W 002°26'0 0.0
2018-Jul-22 13:58N 50°34' W 002°26'0 0.0
2018-Jul-22 13:28N 50°34' W 002°26'0 0.0
2018-Jul-22 12:49N 50°34' W 002°26'0 0.0
2018-Jul-22 12:28N 50°34' W 002°26'0 0.0
2018-Jul-22 11:49N 50°34' W 002°26'0 0.0
2018-Jul-22 11:28N 50°34' W 002°26'0 0.0
2018-Jul-22 10:58N 50°34' W 002°26'0 0.0
2018-Jul-22 10:04N 50°34' W 002°26'0 0.0
2018-Jul-22 09:58N 50°34' W 002°26'0 0.0
2018-Jul-22 09:16N 50°34' W 002°26'0 0.0
2018-Jul-22 08:58N 50°34' W 002°26'0 0.0
2018-Jul-22 08:28N 50°34' W 002°26'0 0.0
2018-Jul-22 07:58N 50°34' W 002°26'0 0.0
2018-Jul-22 07:28N 50°34' W 002°26'0 0.0
2018-Jul-22 06:58N 50°34' W 002°26'0 0.0
2018-Jul-22 06:10N 50°34' W 002°26'0 0.0
2018-Jul-22 05:58N 50°34' W 002°26'0 0.0
2018-Jul-22 05:28N 50°34' W 002°26'0 0.0
2018-Jul-22 04:34N 50°34' W 002°26'0 0.0
2018-Jul-22 04:28N 50°34' W 002°26'0 0.0
2018-Jul-22 03:46N 50°34' W 002°26'0 0.0
2018-Jul-22 03:28N 50°34' W 002°26'0 0.0
2018-Jul-22 02:58N 50°34' W 002°26'0 0.0
2018-Jul-22 02:28N 50°34' W 002°26'0 0.0
2018-Jul-22 01:52N 50°34' W 002°26'0 0.0
2018-Jul-22 01:28N 50°34' W 002°26'0 0.0
2018-Jul-22 00:58N 50°34' W 002°26'0 0.0
2018-Jul-22 00:28N 50°34' W 002°26'0 0.0
2018-Jul-21 23:59N 50°34' W 002°26'0 0.0
2018-Jul-21 23:28N 50°34' W 002°26'0 0.0
2018-Jul-21 22:58N 50°34' W 002°26'0 0.0
2018-Jul-21 22:28N 50°34' W 002°26'0 0.0
2018-Jul-21 21:53N 50°34' W 002°26'0 0.0
2018-Jul-21 21:10N 50°34' W 002°26'0 0.0
2018-Jul-21 20:53N 50°34' W 002°26'0 0.0
2018-Jul-21 20:17N 50°34' W 002°26'0 0.0
2018-Jul-21 19:49N 50°34' W 002°26'0 0.0
2018-Jul-21 19:25N 50°34' W 002°26'0 0.0
2018-Jul-21 18:52N 50°34' W 002°26'0 0.0
2018-Jul-21 18:28N 50°34' W 002°26'0 0.0
2018-Jul-21 17:55N 50°34' W 002°26'0 0.0
2018-Jul-21 17:22N 50°34' W 002°26'0 0.0
2018-Jul-21 16:58N 50°34' W 002°26'0 0.0
2018-Jul-21 16:28N 50°34' W 002°26'0 0.0
2018-Jul-21 15:59N 50°34' W 002°26'0 0.0
2018-Jul-21 15:28N 50°34' W 002°26'0 0.0
2018-Jul-21 14:59N 50°34' W 002°26'0 0.0
2018-Jul-21 14:22N 50°34' W 002°26'0 0.0
2018-Jul-21 13:29N 50°34' W 002°26'0 0.0
2018-Jul-21 12:59N 50°34' W 002°26'0 0.0
2018-Jul-21 12:28N 50°34' W 002°26'0 0.0
2018-Jul-21 11:55N 50°34' W 002°26'0 0.0
2018-Jul-21 11:28N 50°34' W 002°26'0 0.0
2018-Jul-21 10:52N 50°34' W 002°26'0 0.0
2018-Jul-21 09:58N 50°34' W 002°26'0 0.0
2018-Jul-21 09:22N 50°34' W 002°26'0 0.0
2018-Jul-21 08:28N 50°34' W 002°26'0 0.0
2018-Jul-21 07:55N 50°34' W 002°26'0 0.0
2018-Jul-21 07:28N 50°34' W 002°26'0 0.0
2018-Jul-21 06:58N 50°34' W 002°26'0 0.0
2018-Jul-21 05:07N 50°34' W 002°26'0 0.0
2018-Jul-21 04:55N 50°34' W 002°26'0 0.0
2018-Jul-21 03:47N 50°34' W 002°26'0 0.0
2018-Jul-21 03:29N 50°34' W 002°26'0 0.0
2018-Jul-21 02:53N 50°34' W 002°26'0 0.0
2018-Jul-21 02:29N 50°34' W 002°26'0 0.0
2018-Jul-21 01:46N 50°34' W 002°26'0 0.0
2018-Jul-21 01:02N 50°34' W 002°26'0 0.0
2018-Jul-21 00:58N 50°34' W 002°26'0 0.0
2018-Jul-21 00:28N 50°34' W 002°26'0 0.0
2018-Jul-20 23:58N 50°34' W 002°26'0 0.0
2018-Jul-20 23:29N 50°34' W 002°26'0 0.0
2018-Jul-20 22:59N 50°34' W 002°26'0 0.0
2018-Jul-20 22:28N 50°34' W 002°26'0 0.0
2018-Jul-20 21:52N 50°34' W 002°26'0 0.0
2018-Jul-20 21:28N 50°34' W 002°26'0 0.0
2018-Jul-20 20:59N 50°34' W 002°26'0 0.0
2018-Jul-20 20:22N 50°34' W 002°26'0 0.0
2018-Jul-20 19:58N 50°34' W 002°26'0 0.0
2018-Jul-20 19:28N 50°34' W 002°26'0 0.0
2018-Jul-20 18:59N 50°34' W 002°26'0 0.0
2018-Jul-20 18:23N 50°34' W 002°26'0 0.0
2018-Jul-20 17:52N 50°34' W 002°26'0 0.0
2018-Jul-20 17:28N 50°34' W 002°26'0 0.0
2018-Jul-20 16:59N 50°34' W 002°26'0 0.0
2018-Jul-20 16:25N 50°34' W 002°26'0 0.0
2018-Jul-20 15:56N 50°34' W 002°26'0 0.0
2018-Jul-20 15:29N 50°34' W 002°26'0 0.0
2018-Jul-20 14:58N 50°34' W 002°26'0 0.0
2018-Jul-20 14:28N 50°34' W 002°26'0 0.0
2018-Jul-20 13:55N 50°34' W 002°26'0 0.0
2018-Jul-20 13:20N 50°34' W 002°26'0 0.0
2018-Jul-20 12:56N 50°34' W 002°26'0 0.0
2018-Jul-20 11:41N 50°34' W 002°26'0 0.0
2018-Jul-20 11:29N 50°34' W 002°26'0 0.0
2018-Jul-20 10:59N 50°34' W 002°26'0 0.0
2018-Jul-20 10:28N 50°34' W 002°26'0 0.0
2018-Jul-20 09:50N 50°34' W 002°26'0 0.0
2018-Jul-20 09:14N 50°34' W 002°26'0 0.0
2018-Jul-20 08:52N 50°34' W 002°26'0 0.0
2018-Jul-20 08:04N 50°34' W 002°26'0 0.1
2018-Jul-20 07:58N 50°34' W 002°26'0 0.0
2018-Jul-20 07:29N 50°34' W 002°26'0 0.0
2018-Jul-20 06:58N 50°34' W 002°26'0 0.0
2018-Jul-20 06:28N 50°34' W 002°26'0 0.0
2018-Jul-20 05:58N 50°34' W 002°26'0 0.0
2018-Jul-20 05:28N 50°34' W 002°26'0 0.0
2018-Jul-20 04:58N 50°34' W 002°26'0 0.0
2018-Jul-20 04:28N 50°34' W 002°26'0 0.0
2018-Jul-20 03:58N 50°34' W 002°26'0 0.0
2018-Jul-20 03:28N 50°34' W 002°26'0 0.0
2018-Jul-20 02:58N 50°34' W 002°26'0 0.0
2018-Jul-20 02:29N 50°34' W 002°26'0 0.0
2018-Jul-20 01:53N 50°34' W 002°26'0 0.0
2018-Jul-20 01:28N 50°34' W 002°26'0 0.0
2018-Jul-20 00:52N 50°34' W 002°26'0 0.0
2018-Jul-20 00:26N 50°34' W 002°26'0 0.0
2018-Jul-19 23:58N 50°34' W 002°26'0 0.0
2018-Jul-19 23:28N 50°34' W 002°26'0 0.0
2018-Jul-19 22:35N 50°34' W 002°26'0 0.0
2018-Jul-19 22:25N 50°34' W 002°26'0 0.0
2018-Jul-19 21:59N 50°34' W 002°26'0 0.0
2018-Jul-19 21:28N 50°34' W 002°26'0 0.0
2018-Jul-19 20:52N 50°34' W 002°26'0 0.0
2018-Jul-19 20:29N 50°34' W 002°26'0 0.0
2018-Jul-19 19:58N 50°34' W 002°26'0 0.0
2018-Jul-19 19:28N 50°34' W 002°26'0 0.0
2018-Jul-19 18:58N 50°34' W 002°26'0 0.0
2018-Jul-19 18:28N 50°34' W 002°26'0 0.0
2018-Jul-19 17:58N 50°34' W 002°26'0 0.0
2018-Jul-19 17:25N 50°34' W 002°26'0 0.0
2018-Jul-19 16:04N 50°34' W 002°26'0 0.0
2018-Jul-19 15:53N 50°34' W 002°26'0 0.0
2018-Jul-19 15:23N 50°34' W 002°26'0 0.0
2018-Jul-19 14:53N 50°34' W 002°26'0 0.0
2018-Jul-19 12:55N 50°34' W 002°26'0 0.0
2018-Jul-19 12:29N 50°34' W 002°26'0 0.0
2018-Jul-19 11:58N 50°34' W 002°26'0 0.0
2018-Jul-19 11:28N 50°34' W 002°26'0 0.0
2018-Jul-19 10:58N 50°34' W 002°26'0 0.0
2018-Jul-19 10:25N 50°34' W 002°26'0 0.0
2018-Jul-19 09:59N 50°34' W 002°26'0 0.0
2018-Jul-19 09:28N 50°34' W 002°26'0 0.0
2018-Jul-19 08:58N 50°34' W 002°26'0 0.0
2018-Jul-19 08:28N 50°34' W 002°26'0 0.0
2018-Jul-19 07:55N 50°34' W 002°26'0 0.0
2018-Jul-19 07:28N 50°34' W 002°26'0 0.0
2018-Jul-19 06:55N 50°34' W 002°26'0 0.0
2018-Jul-19 06:28N 50°34' W 002°26'0 0.0
2018-Jul-19 05:58N 50°34' W 002°26'0 0.0
2018-Jul-19 05:28N 50°34' W 002°26'0 0.0
2018-Jul-19 04:52N 50°34' W 002°26'0 0.0
2018-Jul-19 04:25N 50°34' W 002°26'0 0.0
2018-Jul-19 03:58N 50°34' W 002°26'0 0.0
2018-Jul-19 03:29N 50°34' W 002°26'0 0.0
2018-Jul-19 02:55N 50°34' W 002°26'0 0.0
2018-Jul-19 02:28N 50°34' W 002°26'0 0.0
2018-Jul-19 01:58N 50°34' W 002°26'0 0.0
2018-Jul-19 01:28N 50°34' W 002°26'0 0.0
2018-Jul-19 00:55N 50°34' W 002°26'0 0.0
2018-Jul-19 00:25N 50°34' W 002°26'0 0.0
2018-Jul-18 23:58N 50°34' W 002°26'0 0.0
2018-Jul-18 23:28N 50°34' W 002°26'0 0.0
2018-Jul-18 22:58N 50°34' W 002°26'0 0.0
2018-Jul-18 22:28N 50°34' W 002°26'0 0.0
2018-Jul-18 21:58N 50°34' W 002°26'0 0.0
2018-Jul-18 21:28N 50°34' W 002°26'0 0.0
2018-Jul-18 20:58N 50°34' W 002°26'0 0.0
2018-Jul-18 20:28N 50°34' W 002°26'  
Track history (hours):
 
Tides and Currents Weather Stations Pressure Air Temp Water Temp Dewpoint Dewpoint Depression Visibility Wind Speed Wind Dir Waves Ship Positions

Sakizaya Diamond

Last reported at 2018-Jul-28 19:38 UTC. Time now 2018-Aug-20 16:46 UTC.
Position N 36°44' W 029°46'.
Warning: this ship's position is 22 days out of date.

Length 229 m; draft 8 m.

Type: Cargo ship. MMSI: 357573000.

Date/timePositionNaut miles runAvg speedWind from/ knotsBaromVisibWave heightAir tempDewpointWater temp
2018-Jul-28 19:38N 36°44' W 029°46'514.5
2018-Jul-28 19:19N 36°47' W 029°41'1514.2
2018-Jul-28 18:17N 36°56' W 029°26'714.5
2018-Jul-28 17:50N 36°59' W 029°20'814.3
2018-Jul-28 17:18N 37°04' W 029°12'413.7
2018-Jul-28 17:00N 37°07' W 029°08'714.1
2018-Jul-28 16:30N 37°10' W 029°01'714.0
2018-Jul-28 16:00N 37°14' W 028°54'714.4
2018-Jul-28 15:30N 37°18' W 028°46'714.7
2018-Jul-28 15:00N 37°22' W 028°39'714.4
2018-Jul-28 14:30N 37°27' W 028°32'714.3
2018-Jul-28 14:00N 37°31' W 028°24'714.1
2018-Jul-28 13:31N 37°35' W 028°17'714.1
2018-Jul-28 13:00N 37°39' W 028°09'714.5
2018-Jul-28 12:30N 37°43' W 028°02'714.7
2018-Jul-28 12:00N 37°47' W 027°54'714.7
2018-Jul-28 11:30N 37°51' W 027°47'714.2
2018-Jul-28 11:00N 37°56' W 027°39'714.2
2018-Jul-28 10:30N 37°60' W 027°32'713.9
2018-Jul-28 10:00N 38°04' W 027°25'714.2
2018-Jul-28 09:30N 38°08' W 027°18'714.3
2018-Jul-28 09:01N 38°13' W 027°11'714.4
2018-Jul-28 08:30N 38°17' W 027°03'714.0
2018-Jul-28 08:00N 38°21' W 026°56'714.5
2018-Jul-28 07:30N 38°26' W 026°49'815.0
2018-Jul-28 07:00N 38°30' W 026°41'714.6
2018-Jul-28 06:30N 38°34' W 026°33'714.6
2018-Jul-28 06:00N 38°38' W 026°25'714.4
2018-Jul-28 05:30N 38°42' W 026°18'714.1
2018-Jul-28 05:00N 38°46' W 026°10'714.5
2018-Jul-28 04:30N 38°50' W 026°02'714.5
2018-Jul-28 04:00N 38°54' W 025°55'1314.0
2018-Jul-28 03:05N 39°01' W 025°41'114.5
2018-Jul-28 03:00N 39°02' W 025°40'914.6
2018-Jul-28 02:22N 39°08' W 025°31'3913.7
2018-Jul-27 23:32N 39°30' W 024°49'513.8
2018-Jul-27 23:08N 39°33' W 024°44'913.6
2018-Jul-27 22:31N 39°38' W 024°35'613.4
2018-Jul-27 22:03N 39°42' W 024°28'  
2018-Jul-24 22:35N 48°54' W 006°13'114.3
2018-Jul-24 22:30N 48°55' W 006°12'1114.6
2018-Jul-24 21:44N 49°01' W 005°58'1615.2
2018-Jul-24 20:42N 49°08' W 005°37'315.6
2018-Jul-24 20:31N 49°10' W 005°33'1115.4
2018-Jul-24 19:47N 49°15' W 005°18'515.3
2018-Jul-24 19:29N 49°17' W 005°11'5514.1
2018-Jul-24 15:35N 49°49' W 004°02'313.1
2018-Jul-24 15:21N 49°50' W 003°57'1113.0
2018-Jul-24 14:30N 49°53' W 003°41'713.4
2018-Jul-24 14:00N 49°56' W 003°32'713.8
2018-Jul-24 13:31N 49°58' W 003°22'714.1
2018-Jul-24 13:00N 50°02' W 003°12'714.8
2018-Jul-24 12:30N 50°07' W 003°04'815.1
2018-Jul-24 12:00N 50°12' W 002°55'815.1
2018-Jul-24 11:31N 50°17' W 002°47'815.4
2018-Jul-24 11:01N 50°23' W 002°38'815.2
2018-Jul-24 10:31N 50°28' W 002°30'815.2
2018-Jul-24 10:01N 50°34' W 002°22'2 4.3
2018-Jul-24 09:30N 50°34' W 002°26'0 0.4
2018-Jul-24 08:58N 50°34' W 002°26'0 0.0
2018-Jul-24 08:28N 50°34' W 002°26'0 0.0
2018-Jul-24 07:52N 50°34' W 002°26'0 0.0
2018-Jul-24 07:16N 50°34' W 002°26'0 0.0
2018-Jul-24 06:58N 50°34' W 002°26'0 0.0
2018-Jul-24 06:28N 50°34' W 002°26'0 0.0
2018-Jul-24 05:58N 50°34' W 002°26'0 0.0
2018-Jul-24 05:28N 50°34' W 002°26'0 0.0
2018-Jul-24 04:58N 50°34' W 002°26'0 0.0
2018-Jul-24 04:23N 50°34' W 002°26'0 0.0
2018-Jul-24 03:56N 50°34' W 002°26'0 0.0
2018-Jul-24 03:28N 50°34' W 002°26'0 0.0
2018-Jul-24 02:52N 50°34' W 002°26'0 0.0
2018-Jul-24 02:25N 50°34' W 002°26'0 0.0
2018-Jul-24 01:59N 50°34' W 002°26'0 0.0
2018-Jul-24 01:26N 50°34' W 002°26'0 0.0
2018-Jul-24 00:53N 50°34' W 002°26'0 0.0
2018-Jul-24 00:17N 50°34' W 002°26'0 0.0
2018-Jul-23 23:59N 50°34' W 002°26'0 0.0
2018-Jul-23 23:23N 50°34' W 002°26'0 0.0
2018-Jul-23 22:59N 50°34' W 002°26'0 0.0
2018-Jul-23 22:23N 50°34' W 002°26'0 0.0
2018-Jul-23 21:53N 50°34' W 002°26'0 0.0
2018-Jul-23 21:23N 50°34' W 002°26'0 0.0
2018-Jul-23 20:59N 50°34' W 002°26'0 0.0
2018-Jul-23 19:56N 50°34' W 002°26'0 0.0
2018-Jul-23 19:23N 50°34' W 002°26'0 0.0
2018-Jul-23 18:49N 50°34' W 002°26'0 0.0
2018-Jul-23 18:29N 50°34' W 002°26'0 0.0
2018-Jul-23 17:56N 50°34' W 002°26'0 0.0
2018-Jul-23 17:28N 50°34' W 002°26'0 0.0
2018-Jul-23 16:58N 50°34' W 002°26'0 0.0
2018-Jul-23 16:28N 50°34' W 002°26'0 0.0
2018-Jul-23 15:59N 50°34' W 002°26'0 0.0
2018-Jul-23 15:29N 50°34' W 002°26'0 0.0
2018-Jul-23 14:47N 50°34' W 002°26'0 0.0
2018-Jul-23 14:22N 50°34' W 002°26'0 0.0
2018-Jul-23 13:53N 50°34' W 002°26'0 0.0
2018-Jul-23 12:52N 50°34' W 002°26'0 0.0
2018-Jul-23 12:28N 50°34' W 002°26'0 0.0
2018-Jul-23 11:47N 50°34' W 002°26'0 0.0
2018-Jul-23 11:04N 50°34' W 002°26'0 0.0
2018-Jul-23 10:52N 50°34' W 002°26'0 0.0
2018-Jul-23 10:23N 50°34' W 002°26'0 0.0
2018-Jul-23 09:46N 50°34' W 002°26'0 0.0
2018-Jul-23 09:17N 50°34' W 002°26'0 0.0
2018-Jul-23 08:53N 50°34' W 002°26'0 0.0
2018-Jul-23 08:29N 50°34' W 002°26'0 0.0
2018-Jul-23 07:53N 50°34' W 002°26'0 0.0
2018-Jul-23 07:22N 50°34' W 002°26'0 0.0
2018-Jul-23 06:52N 50°34' W 002°26'0 0.0
2018-Jul-23 06:17N 50°34' W 002°26'0 0.0
2018-Jul-23 05:58N 50°34' W 002°26'0 0.0
2018-Jul-23 05:22N 50°34' W 002°26'0 0.0
2018-Jul-23 04:58N 50°34' W 002°26'0 0.0
2018-Jul-23 04:19N 50°34' W 002°26'0 0.0
2018-Jul-23 03:58N 50°34' W 002°26'0 0.0
2018-Jul-23 03:25N 50°34' W 002°26'0 0.0
2018-Jul-23 02:58N 50°34' W 002°26'0 0.0
2018-Jul-23 02:22N 50°34' W 002°26'0 0.0
2018-Jul-23 01:58N 50°34' W 002°26'0 0.0
2018-Jul-23 01:29N 50°34' W 002°26'0 0.0
2018-Jul-23 00:56N 50°34' W 002°26'0 0.0
2018-Jul-23 00:29N 50°34' W 002°26'0 0.0
2018-Jul-22 23:55N 50°34' W 002°26'0 0.0
2018-Jul-22 23:29N 50°34' W 002°26'0 0.0
2018-Jul-22 22:58N 50°34' W 002°26'0 0.0
2018-Jul-22 22:29N 50°34' W 002°26'0 0.0
2018-Jul-22 21:58N 50°34' W 002°26'0 0.0
2018-Jul-22 21:28N 50°34' W 002°26'0 0.0
2018-Jul-22 20:58N 50°34' W 002°26'0 0.0
2018-Jul-22 20:28N 50°34' W 002°26'0 0.0
2018-Jul-22 19:46N 50°34' W 002°26'0 0.0
2018-Jul-22 19:14N 50°34' W 002°26'0 0.0
2018-Jul-22 18:58N 50°34' W 002°26'0 0.0
2018-Jul-22 18:22N 50°34' W 002°26'0 0.0
2018-Jul-22 17:58N 50°34' W 002°26'0 0.0
2018-Jul-22 17:28N 50°34' W 002°26'0 0.0
2018-Jul-22 16:52N 50°34' W 002°26'0 0.0
2018-Jul-22 16:28N 50°34' W 002°26'0 0.0
2018-Jul-22 15:58N 50°34' W 002°26'0 0.0
2018-Jul-22 14:55N 50°34' W 002°26'0 0.0
2018-Jul-22 14:28N 50°34' W 002°26'0 0.0
2018-Jul-22 13:58N 50°34' W 002°26'0 0.0
2018-Jul-22 13:28N 50°34' W 002°26'0 0.0
2018-Jul-22 12:49N 50°34' W 002°26'0 0.0
2018-Jul-22 12:28N 50°34' W 002°26'0 0.0
2018-Jul-22 11:49N 50°34' W 002°26'0 0.0
2018-Jul-22 11:28N 50°34' W 002°26'0 0.0
2018-Jul-22 10:58N 50°34' W 002°26'0 0.0
2018-Jul-22 10:04N 50°34' W 002°26'0 0.0
2018-Jul-22 09:58N 50°34' W 002°26'0 0.0
2018-Jul-22 09:16N 50°34' W 002°26'0 0.0
2018-Jul-22 08:58N 50°34' W 002°26'0 0.0
2018-Jul-22 08:28N 50°34' W 002°26'0 0.0
2018-Jul-22 07:58N 50°34' W 002°26'0 0.0
2018-Jul-22 07:28N 50°34' W 002°26'0 0.0
2018-Jul-22 06:58N 50°34' W 002°26'0 0.0
2018-Jul-22 06:10N 50°34' W 002°26'0 0.0
2018-Jul-22 05:58N 50°34' W 002°26'0 0.0
2018-Jul-22 05:28N 50°34' W 002°26'0 0.0
2018-Jul-22 04:34N 50°34' W 002°26'0 0.0
2018-Jul-22 04:28N 50°34' W 002°26'0 0.0
2018-Jul-22 03:46N 50°34' W 002°26'0 0.0
2018-Jul-22 03:28N 50°34' W 002°26'0 0.0
2018-Jul-22 02:58N 50°34' W 002°26'0 0.0
2018-Jul-22 02:28N 50°34' W 002°26'0 0.0
2018-Jul-22 01:52N 50°34' W 002°26'0 0.0
2018-Jul-22 01:28N 50°34' W 002°26'0 0.0
2018-Jul-22 00:58N 50°34' W 002°26'0 0.0
2018-Jul-22 00:28N 50°34' W 002°26'0 0.0
2018-Jul-21 23:59N 50°34' W 002°26'0 0.0
2018-Jul-21 23:28N 50°34' W 002°26'0 0.0
2018-Jul-21 22:58N 50°34' W 002°26'0 0.0
2018-Jul-21 22:28N 50°34' W 002°26'0 0.0
2018-Jul-21 21:53N 50°34' W 002°26'0 0.0
2018-Jul-21 21:10N 50°34' W 002°26'0 0.0
2018-Jul-21 20:53N 50°34' W 002°26'0 0.0
2018-Jul-21 20:17N 50°34' W 002°26'0 0.0
2018-Jul-21 19:49N 50°34' W 002°26'0 0.0
2018-Jul-21 19:25N 50°34' W 002°26'0 0.0
2018-Jul-21 18:52N 50°34' W 002°26'0 0.0
2018-Jul-21 18:28N 50°34' W 002°26'0 0.0
2018-Jul-21 17:55N 50°34' W 002°26'0 0.0
2018-Jul-21 17:22N 50°34' W 002°26'0 0.0
2018-Jul-21 16:58N 50°34' W 002°26'0 0.0
2018-Jul-21 16:28N 50°34' W 002°26'0 0.0
2018-Jul-21 15:59N 50°34' W 002°26'0 0.0
2018-Jul-21 15:28N 50°34' W 002°26'0 0.0
2018-Jul-21 14:59N 50°34' W 002°26'0 0.0
2018-Jul-21 14:22N 50°34' W 002°26'0 0.0
2018-Jul-21 13:29N 50°34' W 002°26'0 0.0
2018-Jul-21 12:59N 50°34' W 002°26'0 0.0
2018-Jul-21 12:28N 50°34' W 002°26'0 0.0
2018-Jul-21 11:55N 50°34' W 002°26'0 0.0
2018-Jul-21 11:28N 50°34' W 002°26'0 0.0
2018-Jul-21 10:52N 50°34' W 002°26'0 0.0
2018-Jul-21 09:58N 50°34' W 002°26'0 0.0
2018-Jul-21 09:22N 50°34' W 002°26'0 0.0
2018-Jul-21 08:28N 50°34' W 002°26'0 0.0
2018-Jul-21 07:55N 50°34' W 002°26'0 0.0
2018-Jul-21 07:28N 50°34' W 002°26'0 0.0
2018-Jul-21 06:58N 50°34' W 002°26'0 0.0
2018-Jul-21 05:07N 50°34' W 002°26'0 0.0
2018-Jul-21 04:55N 50°34' W 002°26'0 0.0
2018-Jul-21 03:47N 50°34' W 002°26'0 0.0
2018-Jul-21 03:29N 50°34' W 002°26'0 0.0
2018-Jul-21 02:53N 50°34' W 002°26'0 0.0
2018-Jul-21 02:29N 50°34' W 002°26'0 0.0
2018-Jul-21 01:46N 50°34' W 002°26'0 0.0
2018-Jul-21 01:02N 50°34' W 002°26'0 0.0
2018-Jul-21 00:58N 50°34' W 002°26'0 0.0
2018-Jul-21 00:28N 50°34' W 002°26'0 0.0
2018-Jul-20 23:58N 50°34' W 002°26'0 0.0
2018-Jul-20 23:29N 50°34' W 002°26'0 0.0
2018-Jul-20 22:59N 50°34' W 002°26'0 0.0
2018-Jul-20 22:28N 50°34' W 002°26'0 0.0
2018-Jul-20 21:52N 50°34' W 002°26'0 0.0
2018-Jul-20 21:28N 50°34' W 002°26'0 0.0
2018-Jul-20 20:59N 50°34' W 002°26'0 0.0
2018-Jul-20 20:22N 50°34' W 002°26'0 0.0
2018-Jul-20 19:58N 50°34' W 002°26'0 0.0
2018-Jul-20 19:28N 50°34' W 002°26'0 0.0
2018-Jul-20 18:59N 50°34' W 002°26'0 0.0
2018-Jul-20 18:23N 50°34' W 002°26'0 0.0
2018-Jul-20 17:52N 50°34' W 002°26'0 0.0
2018-Jul-20 17:28N 50°34' W 002°26'0 0.0
2018-Jul-20 16:59N 50°34' W 002°26'0 0.0
2018-Jul-20 16:25N 50°34' W 002°26'0 0.0
2018-Jul-20 15:56N 50°34' W 002°26'0 0.0
2018-Jul-20 15:29N 50°34' W 002°26'0 0.0
2018-Jul-20 14:58N 50°34' W 002°26'0 0.0
2018-Jul-20 14:28N 50°34' W 002°26'0 0.0
2018-Jul-20 13:55N 50°34' W 002°26'0 0.0
2018-Jul-20 13:20N 50°34' W 002°26'0 0.0
2018-Jul-20 12:56N 50°34' W 002°26'0 0.0
2018-Jul-20 11:41N 50°34' W 002°26'0 0.0
2018-Jul-20 11:29N 50°34' W 002°26'0 0.0
2018-Jul-20 10:59N 50°34' W 002°26'0 0.0
2018-Jul-20 10:28N 50°34' W 002°26'0 0.0
2018-Jul-20 09:50N 50°34' W 002°26'0 0.0
2018-Jul-20 09:14N 50°34' W 002°26'0 0.0
2018-Jul-20 08:52N 50°34' W 002°26'0 0.0
2018-Jul-20 08:04N 50°34' W 002°26'0 0.1
2018-Jul-20 07:58N 50°34' W 002°26'0 0.0
2018-Jul-20 07:29N 50°34' W 002°26'0 0.0
2018-Jul-20 06:58N 50°34' W 002°26'0 0.0
2018-Jul-20 06:28N 50°34' W 002°26'0 0.0
2018-Jul-20 05:58N 50°34' W 002°26'0 0.0
2018-Jul-20 05:28N 50°34' W 002°26'0 0.0
2018-Jul-20 04:58N 50°34' W 002°26'0 0.0
2018-Jul-20 04:28N 50°34' W 002°26'0 0.0
2018-Jul-20 03:58N 50°34' W 002°26'0 0.0
2018-Jul-20 03:28N 50°34' W 002°26'0 0.0
2018-Jul-20 02:58N 50°34' W 002°26'0 0.0
2018-Jul-20 02:29N 50°34' W 002°26'0 0.0
2018-Jul-20 01:53N 50°34' W 002°26'0 0.0
2018-Jul-20 01:28N 50°34' W 002°26'0 0.0
2018-Jul-20 00:52N 50°34' W 002°26'0 0.0
2018-Jul-20 00:26N 50°34' W 002°26'0 0.0
2018-Jul-19 23:58N 50°34' W 002°26'0 0.0
2018-Jul-19 23:28N 50°34' W 002°26'0 0.0
2018-Jul-19 22:35N 50°34' W 002°26'0 0.0
2018-Jul-19 22:25N 50°34' W 002°26'0 0.0
2018-Jul-19 21:59N 50°34' W 002°26'0 0.0
2018-Jul-19 21:28N 50°34' W 002°26'0 0.0
2018-Jul-19 20:52N 50°34' W 002°26'0 0.0
2018-Jul-19 20:29N 50°34' W 002°26'0 0.0
2018-Jul-19 19:58N 50°34' W 002°26'0 0.0
2018-Jul-19 19:28N 50°34' W 002°26'0 0.0
2018-Jul-19 18:58N 50°34' W 002°26'0 0.0
2018-Jul-19 18:28N 50°34' W 002°26'0 0.0
2018-Jul-19 17:58N 50°34' W 002°26'0 0.0
2018-Jul-19 17:25N 50°34' W 002°26'0 0.0
2018-Jul-19 16:04N 50°34' W 002°26'0 0.0
2018-Jul-19 15:53N 50°34' W 002°26'0 0.0
2018-Jul-19 15:23N 50°34' W 002°26'0 0.0
2018-Jul-19 14:53N 50°34' W 002°26'0 0.0
2018-Jul-19 12:55N 50°34' W 002°26'0 0.0
2018-Jul-19 12:29N 50°34' W 002°26'0 0.0
2018-Jul-19 11:58N 50°34' W 002°26'0 0.0
2018-Jul-19 11:28N 50°34' W 002°26'0 0.0
2018-Jul-19 10:58N 50°34' W 002°26'0 0.0
2018-Jul-19 10:25N 50°34' W 002°26'0 0.0
2018-Jul-19 09:59N 50°34' W 002°26'0 0.0
2018-Jul-19 09:28N 50°34' W 002°26'0 0.0
2018-Jul-19 08:58N 50°34' W 002°26'0 0.0
2018-Jul-19 08:28N 50°34' W 002°26'0 0.0
2018-Jul-19 07:55N 50°34' W 002°26'0 0.0
2018-Jul-19 07:28N 50°34' W 002°26'0 0.0
2018-Jul-19 06:55N 50°34' W 002°26'0 0.0
2018-Jul-19 06:28N 50°34' W 002°26'0 0.0
2018-Jul-19 05:58N 50°34' W 002°26'0 0.0
2018-Jul-19 05:28N 50°34' W 002°26'0 0.0
2018-Jul-19 04:52N 50°34' W 002°26'0 0.0
2018-Jul-19 04:25N 50°34' W 002°26'0 0.0
2018-Jul-19 03:58N 50°34' W 002°26'0 0.0
2018-Jul-19 03:29N 50°34' W 002°26'0 0.0
2018-Jul-19 02:55N 50°34' W 002°26'0 0.0
2018-Jul-19 02:28N 50°34' W 002°26'0 0.0
2018-Jul-19 01:58N 50°34' W 002°26'0 0.0
2018-Jul-19 01:28N 50°34' W 002°26'0 0.0
2018-Jul-19 00:55N 50°34' W 002°26'0 0.0
2018-Jul-19 00:25N 50°34' W 002°26'0 0.0
2018-Jul-18 23:58N 50°34' W 002°26'0 0.0
2018-Jul-18 23:28N 50°34' W 002°26'0 0.0
2018-Jul-18 22:58N 50°34' W 002°26'0 0.0
2018-Jul-18 22:28N 50°34' W 002°26'0 0.0
2018-Jul-18 21:58N 50°34' W 002°26'0 0.0
2018-Jul-18 21:28N 50°34' W 002°26'0 0.0
2018-Jul-18 20:58N 50°34' W 002°26'0 0.0
2018-Jul-18 20:28N 50°34' W 002°26'  

Dump ship's entire track history